sensor_id;sensor_type;location;lat;lon;timestamp;P1;durP1;ratioP1;P2;durP2;ratioP2
46753;SDS011;32500;50.620;3.400;2022-08-20T00:00:22;60.85;;;50.15;;
46753;SDS011;32500;50.620;3.400;2022-08-20T00:02:50;60.80;;;50.25;;
46753;SDS011;32500;50.620;3.400;2022-08-20T00:05:41;60.80;;;50.20;;
46753;SDS011;32500;50.620;3.400;2022-08-20T00:08:09;60.10;;;49.97;;
46753;SDS011;32500;50.620;3.400;2022-08-20T00:10:37;60.70;;;50.10;;
46753;SDS011;32500;50.620;3.400;2022-08-20T00:13:06;60.67;;;50.17;;
46753;SDS011;32500;50.620;3.400;2022-08-20T00:15:35;60.08;;;49.97;;
46753;SDS011;32500;50.620;3.400;2022-08-20T00:18:02;60.58;;;50.25;;
46753;SDS011;32500;50.620;3.400;2022-08-20T00:20:29;60.40;;;50.08;;
46753;SDS011;32500;50.620;3.400;2022-08-20T00:22:57;60.58;;;50.20;;
46753;SDS011;32500;50.620;3.400;2022-08-20T00:25:23;61.97;;;50.05;;
46753;SDS011;32500;50.620;3.400;2022-08-20T00:27:50;61.03;;;49.85;;
46753;SDS011;32500;50.620;3.400;2022-08-20T00:30:15;60.47;;;50.10;;
46753;SDS011;32500;50.620;3.400;2022-08-20T00:32:43;60.85;;;50.35;;
46753;SDS011;32500;50.620;3.400;2022-08-20T00:35:15;60.63;;;50.03;;
46753;SDS011;32500;50.620;3.400;2022-08-20T00:37:41;61.05;;;50.25;;
46753;SDS011;32500;50.620;3.400;2022-08-20T00:40:08;60.70;;;50.15;;
46753;SDS011;32500;50.620;3.400;2022-08-20T00:42:39;60.25;;;49.95;;
46753;SDS011;32500;50.620;3.400;2022-08-20T00:45:06;60.45;;;50.08;;
46753;SDS011;32500;50.620;3.400;2022-08-20T00:47:32;61.10;;;50.10;;
46753;SDS011;32500;50.620;3.400;2022-08-20T00:49:58;61.13;;;50.28;;
46753;SDS011;32500;50.620;3.400;2022-08-20T00:52:24;60.95;;;50.15;;
46753;SDS011;32500;50.620;3.400;2022-08-20T00:54:54;60.50;;;50.08;;
46753;SDS011;32500;50.620;3.400;2022-08-20T00:59:54;60.28;;;50.05;;
46753;SDS011;32500;50.620;3.400;2022-08-20T01:02:23;60.33;;;50.05;;
46753;SDS011;32500;50.620;3.400;2022-08-20T01:04:51;60.85;;;50.03;;
46753;SDS011;32500;50.620;3.400;2022-08-20T01:07:18;61.13;;;50.13;;
46753;SDS011;32500;50.620;3.400;2022-08-20T01:09:56;60.33;;;49.92;;
46753;SDS011;32500;50.620;3.400;2022-08-20T01:12:23;60.35;;;50.05;;
46753;SDS011;32500;50.620;3.400;2022-08-20T01:14:49;60.85;;;50.35;;
46753;SDS011;32500;50.620;3.400;2022-08-20T01:17:18;60.35;;;50.00;;
46753;SDS011;32500;50.620;3.400;2022-08-20T01:19:52;60.95;;;50.28;;
46753;SDS011;32500;50.620;3.400;2022-08-20T01:22:25;60.38;;;50.22;;
46753;SDS011;32500;50.620;3.400;2022-08-20T01:28:39;61.40;;;50.03;;
46753;SDS011;32500;50.620;3.400;2022-08-20T01:31:20;61.90;;;50.13;;
46753;SDS011;32500;50.620;3.400;2022-08-20T01:33:48;61.58;;;50.15;;
46753;SDS011;32500;50.620;3.400;2022-08-20T01:36:16;60.55;;;50.03;;
46753;SDS011;32500;50.620;3.400;2022-08-20T01:38:46;60.27;;;49.87;;
46753;SDS011;32500;50.620;3.400;2022-08-20T01:43:48;60.63;;;50.05;;
46753;SDS011;32500;50.620;3.400;2022-08-20T01:46:15;60.72;;;49.92;;
46753;SDS011;32500;50.620;3.400;2022-08-20T01:48:41;60.72;;;49.85;;
46753;SDS011;32500;50.620;3.400;2022-08-20T01:51:12;60.80;;;50.05;;
46753;SDS011;32500;50.620;3.400;2022-08-20T01:53:43;60.35;;;49.95;;
46753;SDS011;32500;50.620;3.400;2022-08-20T01:56:14;60.42;;;49.90;;
46753;SDS011;32500;50.620;3.400;2022-08-20T01:58:45;62.07;;;50.30;;
46753;SDS011;32500;50.620;3.400;2022-08-20T02:01:25;60.50;;;50.08;;
46753;SDS011;32500;50.620;3.400;2022-08-20T02:03:59;60.15;;;50.05;;
46753;SDS011;32500;50.620;3.400;2022-08-20T02:06:29;60.60;;;50.15;;
46753;SDS011;32500;50.620;3.400;2022-08-20T02:11:24;60.95;;;49.95;;
46753;SDS011;32500;50.620;3.400;2022-08-20T02:13:52;60.03;;;49.83;;
46753;SDS011;32500;50.620;3.400;2022-08-20T02:16:22;60.92;;;50.17;;
46753;SDS011;32500;50.620;3.400;2022-08-20T02:18:51;60.90;;;50.13;;
46753;SDS011;32500;50.620;3.400;2022-08-20T02:21:22;59.58;;;49.83;;
46753;SDS011;32500;50.620;3.400;2022-08-20T02:23:51;60.30;;;50.05;;
46753;SDS011;32500;50.620;3.400;2022-08-20T02:26:17;60.05;;;50.15;;
46753;SDS011;32500;50.620;3.400;2022-08-20T02:28:46;60.38;;;50.20;;
46753;SDS011;32500;50.620;3.400;2022-08-20T02:31:13;60.45;;;49.85;;
46753;SDS011;32500;50.620;3.400;2022-08-20T02:33:40;60.42;;;49.83;;
46753;SDS011;32500;50.620;3.400;2022-08-20T02:36:05;61.15;;;49.83;;
46753;SDS011;32500;50.620;3.400;2022-08-20T02:38:31;60.63;;;50.03;;
46753;SDS011;32500;50.620;3.400;2022-08-20T02:40:59;61.08;;;50.03;;
46753;SDS011;32500;50.620;3.400;2022-08-20T02:43:25;61.90;;;50.05;;
46753;SDS011;32500;50.620;3.400;2022-08-20T02:45:51;60.20;;;50.05;;
46753;SDS011;32500;50.620;3.400;2022-08-20T02:48:17;60.38;;;49.97;;
46753;SDS011;32500;50.620;3.400;2022-08-20T02:50:46;59.70;;;49.72;;
46753;SDS011;32500;50.620;3.400;2022-08-20T02:53:16;60.75;;;50.30;;
46753;SDS011;32500;50.620;3.400;2022-08-20T02:55:42;60.95;;;50.05;;
46753;SDS011;32500;50.620;3.400;2022-08-20T02:58:08;60.03;;;49.75;;
46753;SDS011;32500;50.620;3.400;2022-08-20T03:00:34;60.30;;;49.92;;
46753;SDS011;32500;50.620;3.400;2022-08-20T03:03:00;60.17;;;49.90;;
46753;SDS011;32500;50.620;3.400;2022-08-20T03:05:26;60.00;;;49.83;;
46753;SDS011;32500;50.620;3.400;2022-08-20T03:07:52;61.83;;;49.95;;
46753;SDS011;32500;50.620;3.400;2022-08-20T03:10:24;60.33;;;49.83;;
46753;SDS011;32500;50.620;3.400;2022-08-20T03:12:55;60.63;;;49.88;;
46753;SDS011;32500;50.620;3.400;2022-08-20T03:15:25;60.05;;;50.22;;
46753;SDS011;32500;50.620;3.400;2022-08-20T03:17:50;61.40;;;50.13;;
46753;SDS011;32500;50.620;3.400;2022-08-20T03:20:16;60.20;;;49.75;;
46753;SDS011;32500;50.620;3.400;2022-08-20T03:22:42;60.65;;;50.00;;
46753;SDS011;32500;50.620;3.400;2022-08-20T03:25:08;60.17;;;50.00;;
46753;SDS011;32500;50.620;3.400;2022-08-20T03:27:34;62.60;;;50.05;;
46753;SDS011;32500;50.620;3.400;2022-08-20T03:30:00;62.00;;;50.05;;
46753;SDS011;32500;50.620;3.400;2022-08-20T03:32:26;60.42;;;50.20;;
46753;SDS011;32500;50.620;3.400;2022-08-20T03:34:52;59.85;;;49.92;;
46753;SDS011;32500;50.620;3.400;2022-08-20T03:37:17;60.10;;;50.05;;
46753;SDS011;32500;50.620;3.400;2022-08-20T03:39:43;59.92;;;49.70;;
46753;SDS011;32500;50.620;3.400;2022-08-20T03:42:08;61.20;;;49.97;;
46753;SDS011;32500;50.620;3.400;2022-08-20T03:44:34;60.28;;;50.05;;
46753;SDS011;32500;50.620;3.400;2022-08-20T03:47:02;59.92;;;50.08;;
46753;SDS011;32500;50.620;3.400;2022-08-20T03:49:31;59.90;;;50.00;;
46753;SDS011;32500;50.620;3.400;2022-08-20T03:51:58;60.65;;;49.97;;
46753;SDS011;32500;50.620;3.400;2022-08-20T03:54:25;60.55;;;50.13;;
46753;SDS011;32500;50.620;3.400;2022-08-20T03:56:51;60.95;;;50.13;;
46753;SDS011;32500;50.620;3.400;2022-08-20T03:59:16;60.78;;;49.85;;
46753;SDS011;32500;50.620;3.400;2022-08-20T04:01:42;61.38;;;49.95;;
46753;SDS011;32500;50.620;3.400;2022-08-20T04:04:08;61.13;;;49.95;;
46753;SDS011;32500;50.620;3.400;2022-08-20T04:06:34;60.35;;;49.72;;
46753;SDS011;32500;50.620;3.400;2022-08-20T04:09:00;60.03;;;49.83;;
46753;SDS011;32500;50.620;3.400;2022-08-20T04:11:26;60.13;;;49.92;;
46753;SDS011;32500;50.620;3.400;2022-08-20T04:13:51;60.15;;;49.85;;
46753;SDS011;32500;50.620;3.400;2022-08-20T04:16:17;62.25;;;50.03;;
46753;SDS011;32500;50.620;3.400;2022-08-20T04:18:43;60.03;;;50.03;;
46753;SDS011;32500;50.620;3.400;2022-08-20T04:21:08;61.38;;;50.05;;
46753;SDS011;32500;50.620;3.400;2022-08-20T04:23:34;62.22;;;50.03;;
46753;SDS011;32500;50.620;3.400;2022-08-20T04:26:00;60.38;;;50.00;;
46753;SDS011;32500;50.620;3.400;2022-08-20T04:28:25;60.00;;;49.80;;
46753;SDS011;32500;50.620;3.400;2022-08-20T04:30:56;60.17;;;49.83;;
46753;SDS011;32500;50.620;3.400;2022-08-20T04:33:23;59.83;;;49.83;;
46753;SDS011;32500;50.620;3.400;2022-08-20T04:35:51;61.10;;;50.05;;
46753;SDS011;32500;50.620;3.400;2022-08-20T04:38:18;60.55;;;49.88;;
46753;SDS011;32500;50.620;3.400;2022-08-20T04:40:44;59.88;;;49.95;;
46753;SDS011;32500;50.620;3.400;2022-08-20T04:45:53;60.50;;;49.67;;
46753;SDS011;32500;50.620;3.400;2022-08-20T04:48:21;60.97;;;50.25;;
46753;SDS011;32500;50.620;3.400;2022-08-20T04:50:49;60.10;;;49.85;;
46753;SDS011;32500;50.620;3.400;2022-08-20T04:53:17;59.95;;;49.70;;
46753;SDS011;32500;50.620;3.400;2022-08-20T04:55:44;60.97;;;50.03;;
46753;SDS011;32500;50.620;3.400;2022-08-20T04:58:11;59.92;;;50.00;;
46753;SDS011;32500;50.620;3.400;2022-08-20T05:00:52;59.78;;;49.72;;
46753;SDS011;32500;50.620;3.400;2022-08-20T05:03:19;60.47;;;49.88;;
46753;SDS011;32500;50.620;3.400;2022-08-20T05:05:46;59.97;;;49.92;;
46753;SDS011;32500;50.620;3.400;2022-08-20T05:08:13;60.33;;;50.13;;
46753;SDS011;32500;50.620;3.400;2022-08-20T05:10:40;59.58;;;49.75;;
46753;SDS011;32500;50.620;3.400;2022-08-20T05:13:06;60.13;;;49.75;;
46753;SDS011;32500;50.620;3.400;2022-08-20T05:15:32;60.63;;;50.05;;
46753;SDS011;32500;50.620;3.400;2022-08-20T05:18:00;61.08;;;49.80;;
46753;SDS011;32500;50.620;3.400;2022-08-20T05:20:28;60.05;;;49.90;;
46753;SDS011;32500;50.620;3.400;2022-08-20T05:22:55;60.22;;;49.78;;
46753;SDS011;32500;50.620;3.400;2022-08-20T05:25:22;60.25;;;49.95;;
46753;SDS011;32500;50.620;3.400;2022-08-20T05:27:48;60.72;;;50.15;;
46753;SDS011;32500;50.620;3.400;2022-08-20T05:30:13;60.03;;;49.95;;
46753;SDS011;32500;50.620;3.400;2022-08-20T05:32:39;61.05;;;49.75;;
46753;SDS011;32500;50.620;3.400;2022-08-20T05:35:06;59.75;;;50.05;;
46753;SDS011;32500;50.620;3.400;2022-08-20T05:37:36;60.00;;;49.85;;
46753;SDS011;32500;50.620;3.400;2022-08-20T05:40:09;60.08;;;49.70;;
46753;SDS011;32500;50.620;3.400;2022-08-20T05:42:37;59.00;;;49.30;;
46753;SDS011;32500;50.620;3.400;2022-08-20T05:45:03;60.22;;;50.05;;
46753;SDS011;32500;50.620;3.400;2022-08-20T05:47:29;60.35;;;49.95;;
46753;SDS011;32500;50.620;3.400;2022-08-20T05:49:55;61.58;;;50.30;;
46753;SDS011;32500;50.620;3.400;2022-08-20T05:52:21;61.42;;;50.00;;
46753;SDS011;32500;50.620;3.400;2022-08-20T05:54:47;59.92;;;49.90;;
46753;SDS011;32500;50.620;3.400;2022-08-20T05:57:15;60.42;;;49.95;;
46753;SDS011;32500;50.620;3.400;2022-08-20T05:59:43;60.22;;;49.83;;
46753;SDS011;32500;50.620;3.400;2022-08-20T06:02:08;59.95;;;49.70;;
46753;SDS011;32500;50.620;3.400;2022-08-20T06:04:54;59.20;;;49.65;;
46753;SDS011;32500;50.620;3.400;2022-08-20T06:07:20;60.58;;;49.72;;
46753;SDS011;32500;50.620;3.400;2022-08-20T06:09:47;59.53;;;49.85;;
46753;SDS011;32500;50.620;3.400;2022-08-20T06:12:12;61.17;;;50.22;;
46753;SDS011;32500;50.620;3.400;2022-08-20T06:14:38;60.60;;;50.35;;
46753;SDS011;32500;50.620;3.400;2022-08-20T06:17:11;60.63;;;49.95;;
46753;SDS011;32500;50.620;3.400;2022-08-20T06:19:40;62.47;;;50.03;;
46753;SDS011;32500;50.620;3.400;2022-08-20T06:22:06;60.10;;;49.72;;
46753;SDS011;32500;50.620;3.400;2022-08-20T06:24:32;61.50;;;49.90;;
46753;SDS011;32500;50.620;3.400;2022-08-20T06:26:58;61.13;;;50.15;;
46753;SDS011;32500;50.620;3.400;2022-08-20T06:29:26;59.92;;;50.00;;
46753;SDS011;32500;50.620;3.400;2022-08-20T06:31:52;61.05;;;50.13;;
46753;SDS011;32500;50.620;3.400;2022-08-20T06:34:19;60.50;;;49.88;;
46753;SDS011;32500;50.620;3.400;2022-08-20T06:36:45;60.50;;;50.03;;
46753;SDS011;32500;50.620;3.400;2022-08-20T06:39:12;62.35;;;50.13;;
46753;SDS011;32500;50.620;3.400;2022-08-20T06:41:38;60.70;;;50.13;;
46753;SDS011;32500;50.620;3.400;2022-08-20T06:44:04;60.85;;;50.10;;
46753;SDS011;32500;50.620;3.400;2022-08-20T06:46:34;59.78;;;49.92;;
46753;SDS011;32500;50.620;3.400;2022-08-20T06:49:00;60.78;;;49.85;;
46753;SDS011;32500;50.620;3.400;2022-08-20T06:51:30;61.85;;;50.10;;
46753;SDS011;32500;50.620;3.400;2022-08-20T06:53:58;60.75;;;50.15;;
46753;SDS011;32500;50.620;3.400;2022-08-20T06:56:23;60.30;;;50.08;;
46753;SDS011;32500;50.620;3.400;2022-08-20T06:58:49;60.83;;;50.20;;
46753;SDS011;32500;50.620;3.400;2022-08-20T07:01:15;61.10;;;49.95;;
46753;SDS011;32500;50.620;3.400;2022-08-20T07:03:46;60.15;;;50.03;;
46753;SDS011;32500;50.620;3.400;2022-08-20T07:06:13;60.80;;;50.17;;
46753;SDS011;32500;50.620;3.400;2022-08-20T07:08:40;60.95;;;50.25;;
46753;SDS011;32500;50.620;3.400;2022-08-20T07:11:07;60.47;;;50.20;;
46753;SDS011;32500;50.620;3.400;2022-08-20T07:13:33;61.20;;;50.05;;
46753;SDS011;32500;50.620;3.400;2022-08-20T07:16:02;59.85;;;49.75;;
46753;SDS011;32500;50.620;3.400;2022-08-20T07:18:29;60.40;;;50.15;;
46753;SDS011;32500;50.620;3.400;2022-08-20T07:20:55;63.30;;;50.38;;
46753;SDS011;32500;50.620;3.400;2022-08-20T07:23:22;61.40;;;50.22;;
46753;SDS011;32500;50.620;3.400;2022-08-20T07:25:49;61.00;;;49.95;;
46753;SDS011;32500;50.620;3.400;2022-08-20T07:28:17;62.25;;;50.22;;
46753;SDS011;32500;50.620;3.400;2022-08-20T07:30:46;61.28;;;50.00;;
46753;SDS011;32500;50.620;3.400;2022-08-20T07:33:30;60.22;;;50.05;;
46753;SDS011;32500;50.620;3.400;2022-08-20T07:35:57;61.67;;;50.42;;
46753;SDS011;32500;50.620;3.400;2022-08-20T07:38:25;62.22;;;50.45;;
46753;SDS011;32500;50.620;3.400;2022-08-20T07:40:53;62.85;;;50.42;;
46753;SDS011;32500;50.620;3.400;2022-08-20T07:43:20;65.32;;;50.55;;
46753;SDS011;32500;50.620;3.400;2022-08-20T07:45:49;61.88;;;50.55;;
46753;SDS011;32500;50.620;3.400;2022-08-20T07:48:19;61.80;;;50.63;;
46753;SDS011;32500;50.620;3.400;2022-08-20T07:50:45;63.35;;;51.05;;
46753;SDS011;32500;50.620;3.400;2022-08-20T07:53:14;64.68;;;51.03;;
46753;SDS011;32500;50.620;3.400;2022-08-20T07:55:41;64.47;;;51.53;;
46753;SDS011;32500;50.620;3.400;2022-08-20T07:58:09;67.22;;;51.75;;
46753;SDS011;32500;50.620;3.400;2022-08-20T08:00:39;74.32;;;52.33;;
46753;SDS011;32500;50.620;3.400;2022-08-20T08:03:05;67.20;;;52.22;;
46753;SDS011;32500;50.620;3.400;2022-08-20T08:05:32;65.85;;;51.88;;
46753;SDS011;32500;50.620;3.400;2022-08-20T08:08:02;64.80;;;51.90;;
46753;SDS011;32500;50.620;3.400;2022-08-20T08:10:32;68.35;;;52.40;;
46753;SDS011;32500;50.620;3.400;2022-08-20T08:13:01;66.15;;;51.80;;
46753;SDS011;32500;50.620;3.400;2022-08-20T08:15:31;68.00;;;51.95;;
46753;SDS011;32500;50.620;3.400;2022-08-20T08:18:04;67.28;;;52.13;;
46753;SDS011;32500;50.620;3.400;2022-08-20T08:20:33;67.30;;;51.90;;
46753;SDS011;32500;50.620;3.400;2022-08-20T08:23:02;65.38;;;51.88;;
46753;SDS011;32500;50.620;3.400;2022-08-20T08:25:29;65.25;;;51.47;;
46753;SDS011;32500;50.620;3.400;2022-08-20T08:27:57;64.18;;;51.22;;
46753;SDS011;32500;50.620;3.400;2022-08-20T08:30:24;63.72;;;51.47;;
46753;SDS011;32500;50.620;3.400;2022-08-20T08:32:52;65.88;;;51.58;;
46753;SDS011;32500;50.620;3.400;2022-08-20T08:35:37;65.32;;;51.75;;
46753;SDS011;32500;50.620;3.400;2022-08-20T08:38:04;65.10;;;51.30;;
46753;SDS011;32500;50.620;3.400;2022-08-20T08:40:30;65.63;;;51.53;;
46753;SDS011;32500;50.620;3.400;2022-08-20T08:42:57;63.13;;;51.10;;
46753;SDS011;32500;50.620;3.400;2022-08-20T08:45:28;62.70;;;50.90;;
46753;SDS011;32500;50.620;3.400;2022-08-20T08:48:02;63.33;;;51.20;;
46753;SDS011;32500;50.620;3.400;2022-08-20T08:50:29;63.88;;;51.50;;
46753;SDS011;32500;50.620;3.400;2022-08-20T08:52:57;63.88;;;51.03;;
46753;SDS011;32500;50.620;3.400;2022-08-20T08:55:25;66.00;;;51.42;;
46753;SDS011;32500;50.620;3.400;2022-08-20T08:57:54;64.60;;;51.40;;
46753;SDS011;32500;50.620;3.400;2022-08-20T09:00:23;62.47;;;51.00;;
46753;SDS011;32500;50.620;3.400;2022-08-20T09:05:21;64.63;;;51.42;;
46753;SDS011;32500;50.620;3.400;2022-08-20T09:07:51;64.65;;;51.13;;
46753;SDS011;32500;50.620;3.400;2022-08-20T09:10:18;64.05;;;51.33;;
46753;SDS011;32500;50.620;3.400;2022-08-20T09:12:44;63.80;;;51.15;;
46753;SDS011;32500;50.620;3.400;2022-08-20T09:15:10;65.93;;;51.42;;
46753;SDS011;32500;50.620;3.400;2022-08-20T09:17:36;65.07;;;51.20;;
46753;SDS011;32500;50.620;3.400;2022-08-20T09:20:02;63.47;;;51.28;;
46753;SDS011;32500;50.620;3.400;2022-08-20T09:22:28;64.35;;;51.40;;
46753;SDS011;32500;50.620;3.400;2022-08-20T09:24:57;63.85;;;51.35;;
46753;SDS011;32500;50.620;3.400;2022-08-20T09:27:23;66.47;;;51.45;;
46753;SDS011;32500;50.620;3.400;2022-08-20T09:29:48;62.75;;;51.08;;
46753;SDS011;32500;50.620;3.400;2022-08-20T09:32:18;64.00;;;50.97;;
46753;SDS011;32500;50.620;3.400;2022-08-20T09:34:46;64.85;;;51.20;;
46753;SDS011;32500;50.620;3.400;2022-08-20T09:37:16;62.57;;;50.70;;
46753;SDS011;32500;50.620;3.400;2022-08-20T09:39:41;63.33;;;51.25;;
46753;SDS011;32500;50.620;3.400;2022-08-20T09:42:12;62.67;;;51.28;;
46753;SDS011;32500;50.620;3.400;2022-08-20T09:44:40;62.40;;;51.13;;
46753;SDS011;32500;50.620;3.400;2022-08-20T09:47:07;61.83;;;51.00;;
46753;SDS011;32500;50.620;3.400;2022-08-20T09:49:32;64.07;;;51.25;;
46753;SDS011;32500;50.620;3.400;2022-08-20T09:51:58;63.50;;;51.33;;
46753;SDS011;32500;50.620;3.400;2022-08-20T09:54:25;63.22;;;51.13;;
46753;SDS011;32500;50.620;3.400;2022-08-20T09:56:55;62.60;;;51.05;;
46753;SDS011;32500;50.620;3.400;2022-08-20T09:59:22;62.95;;;50.92;;
46753;SDS011;32500;50.620;3.400;2022-08-20T10:01:48;62.90;;;51.28;;
46753;SDS011;32500;50.620;3.400;2022-08-20T10:04:14;62.95;;;51.08;;
46753;SDS011;32500;50.620;3.400;2022-08-20T10:06:40;62.60;;;50.92;;
46753;SDS011;32500;50.620;3.400;2022-08-20T10:09:06;62.97;;;50.90;;
46753;SDS011;32500;50.620;3.400;2022-08-20T10:11:32;62.08;;;51.08;;
46753;SDS011;32500;50.620;3.400;2022-08-20T10:13:58;62.80;;;50.88;;
46753;SDS011;32500;50.620;3.400;2022-08-20T10:16:24;63.60;;;51.15;;
46753;SDS011;32500;50.620;3.400;2022-08-20T10:18:49;62.97;;;51.20;;
46753;SDS011;32500;50.620;3.400;2022-08-20T10:21:15;62.45;;;50.75;;
46753;SDS011;32500;50.620;3.400;2022-08-20T10:23:41;64.60;;;51.25;;
46753;SDS011;32500;50.620;3.400;2022-08-20T10:26:07;65.10;;;51.35;;
46753;SDS011;32500;50.620;3.400;2022-08-20T10:28:34;62.13;;;50.90;;
46753;SDS011;32500;50.620;3.400;2022-08-20T10:31:00;63.17;;;51.25;;
46753;SDS011;32500;50.620;3.400;2022-08-20T10:33:26;62.85;;;50.90;;
46753;SDS011;32500;50.620;3.400;2022-08-20T10:35:51;62.72;;;50.83;;
46753;SDS011;32500;50.620;3.400;2022-08-20T10:38:17;62.35;;;50.92;;
46753;SDS011;32500;50.620;3.400;2022-08-20T10:40:43;63.42;;;51.13;;
46753;SDS011;32500;50.620;3.400;2022-08-20T10:43:08;62.80;;;50.88;;
46753;SDS011;32500;50.620;3.400;2022-08-20T10:45:34;63.15;;;50.92;;
46753;SDS011;32500;50.620;3.400;2022-08-20T10:48:00;61.90;;;50.67;;
46753;SDS011;32500;50.620;3.400;2022-08-20T10:50:26;62.75;;;51.03;;
46753;SDS011;32500;50.620;3.400;2022-08-20T10:52:52;63.92;;;51.05;;
46753;SDS011;32500;50.620;3.400;2022-08-20T10:55:18;62.65;;;51.05;;
46753;SDS011;32500;50.620;3.400;2022-08-20T10:57:44;63.45;;;50.95;;
46753;SDS011;32500;50.620;3.400;2022-08-20T11:00:11;62.92;;;50.97;;
46753;SDS011;32500;50.620;3.400;2022-08-20T11:02:38;62.90;;;50.95;;
46753;SDS011;32500;50.620;3.400;2022-08-20T11:05:05;62.58;;;51.20;;
46753;SDS011;32500;50.620;3.400;2022-08-20T11:07:32;62.72;;;50.83;;
46753;SDS011;32500;50.620;3.400;2022-08-20T11:10:03;63.65;;;51.00;;
46753;SDS011;32500;50.620;3.400;2022-08-20T11:12:31;62.75;;;50.88;;
46753;SDS011;32500;50.620;3.400;2022-08-20T11:14:56;63.90;;;51.03;;
46753;SDS011;32500;50.620;3.400;2022-08-20T11:17:29;63.47;;;51.08;;
46753;SDS011;32500;50.620;3.400;2022-08-20T11:19:57;62.83;;;50.83;;
46753;SDS011;32500;50.620;3.400;2022-08-20T11:22:25;63.28;;;51.35;;
46753;SDS011;32500;50.620;3.400;2022-08-20T11:24:51;64.15;;;51.13;;
46753;SDS011;32500;50.620;3.400;2022-08-20T11:27:25;63.65;;;51.15;;
46753;SDS011;32500;50.620;3.400;2022-08-20T11:29:55;63.28;;;51.20;;
46753;SDS011;32500;50.620;3.400;2022-08-20T11:32:22;65.20;;;51.42;;
46753;SDS011;32500;50.620;3.400;2022-08-20T11:34:48;63.60;;;51.28;;
46753;SDS011;32500;50.620;3.400;2022-08-20T11:37:15;63.53;;;51.22;;
46753;SDS011;32500;50.620;3.400;2022-08-20T11:39:41;63.63;;;51.58;;
46753;SDS011;32500;50.620;3.400;2022-08-20T11:42:08;62.60;;;51.13;;
46753;SDS011;32500;50.620;3.400;2022-08-20T11:44:33;65.18;;;51.42;;
46753;SDS011;32500;50.620;3.400;2022-08-20T11:47:00;63.75;;;51.35;;
46753;SDS011;32500;50.620;3.400;2022-08-20T11:49:32;64.00;;;51.35;;
46753;SDS011;32500;50.620;3.400;2022-08-20T11:51:59;63.90;;;51.33;;
46753;SDS011;32500;50.620;3.400;2022-08-20T11:54:24;64.07;;;51.55;;
46753;SDS011;32500;50.620;3.400;2022-08-20T11:56:53;63.20;;;51.35;;
46753;SDS011;32500;50.620;3.400;2022-08-20T11:59:21;63.70;;;51.25;;
46753;SDS011;32500;50.620;3.400;2022-08-20T12:01:50;63.88;;;51.38;;
46753;SDS011;32500;50.620;3.400;2022-08-20T12:04:18;63.35;;;51.25;;
46753;SDS011;32500;50.620;3.400;2022-08-20T12:06:44;63.10;;;51.40;;
46753;SDS011;32500;50.620;3.400;2022-08-20T12:09:10;62.97;;;51.50;;
46753;SDS011;32500;50.620;3.400;2022-08-20T12:11:35;63.47;;;51.25;;
46753;SDS011;32500;50.620;3.400;2022-08-20T12:14:01;64.75;;;51.35;;
46753;SDS011;32500;50.620;3.400;2022-08-20T12:16:27;63.88;;;51.38;;
46753;SDS011;32500;50.620;3.400;2022-08-20T12:18:52;64.18;;;51.50;;
46753;SDS011;32500;50.620;3.400;2022-08-20T12:21:18;64.30;;;51.45;;
46753;SDS011;32500;50.620;3.400;2022-08-20T12:23:44;64.25;;;51.28;;
46753;SDS011;32500;50.620;3.400;2022-08-20T12:26:10;64.13;;;51.30;;
46753;SDS011;32500;50.620;3.400;2022-08-20T12:28:35;64.70;;;51.55;;
46753;SDS011;32500;50.620;3.400;2022-08-20T12:31:01;63.90;;;51.55;;
46753;SDS011;32500;50.620;3.400;2022-08-20T12:33:27;63.83;;;51.33;;
46753;SDS011;32500;50.620;3.400;2022-08-20T12:35:52;64.60;;;51.22;;
46753;SDS011;32500;50.620;3.400;2022-08-20T12:38:18;63.65;;;51.58;;
46753;SDS011;32500;50.620;3.400;2022-08-20T12:40:44;64.43;;;51.35;;
46753;SDS011;32500;50.620;3.400;2022-08-20T12:43:10;66.05;;;51.47;;
46753;SDS011;32500;50.620;3.400;2022-08-20T12:45:35;64.32;;;51.42;;
46753;SDS011;32500;50.620;3.400;2022-08-20T12:48:03;63.92;;;51.65;;
46753;SDS011;32500;50.620;3.400;2022-08-20T12:50:32;64.13;;;51.70;;
46753;SDS011;32500;50.620;3.400;2022-08-20T12:52:59;65.47;;;51.75;;
46753;SDS011;32500;50.620;3.400;2022-08-20T12:55:25;64.65;;;51.45;;
46753;SDS011;32500;50.620;3.400;2022-08-20T12:57:52;64.20;;;51.63;;
46753;SDS011;32500;50.620;3.400;2022-08-20T13:02:52;64.25;;;51.65;;
46753;SDS011;32500;50.620;3.400;2022-08-20T13:05:20;64.15;;;51.50;;
46753;SDS011;32500;50.620;3.400;2022-08-20T13:07:47;65.90;;;51.47;;
46753;SDS011;32500;50.620;3.400;2022-08-20T13:10:15;63.40;;;51.28;;
46753;SDS011;32500;50.620;3.400;2022-08-20T13:12:44;63.40;;;51.30;;
46753;SDS011;32500;50.620;3.400;2022-08-20T13:15:09;64.35;;;51.53;;
46753;SDS011;32500;50.620;3.400;2022-08-20T13:17:35;64.63;;;51.63;;
46753;SDS011;32500;50.620;3.400;2022-08-20T13:20:02;64.38;;;51.63;;
46753;SDS011;32500;50.620;3.400;2022-08-20T13:22:31;64.03;;;51.55;;
46753;SDS011;32500;50.620;3.400;2022-08-20T13:24:56;63.42;;;51.20;;
46753;SDS011;32500;50.620;3.400;2022-08-20T13:27:22;65.07;;;51.55;;
46753;SDS011;32500;50.620;3.400;2022-08-20T13:29:50;63.95;;;51.65;;
46753;SDS011;32500;50.620;3.400;2022-08-20T13:34:45;62.47;;;51.05;;
46753;SDS011;32500;50.620;3.400;2022-08-20T13:37:12;62.85;;;51.20;;
46753;SDS011;32500;50.620;3.400;2022-08-20T13:39:39;63.42;;;51.47;;
46753;SDS011;32500;50.620;3.400;2022-08-20T13:42:05;65.88;;;51.75;;
46753;SDS011;32500;50.620;3.400;2022-08-20T13:44:31;63.28;;;51.47;;
46753;SDS011;32500;50.620;3.400;2022-08-20T13:46:57;63.97;;;51.65;;
46753;SDS011;32500;50.620;3.400;2022-08-20T13:49:22;62.88;;;51.25;;
46753;SDS011;32500;50.620;3.400;2022-08-20T13:51:48;63.20;;;51.40;;
46753;SDS011;32500;50.620;3.400;2022-08-20T13:54:14;63.10;;;51.33;;
46753;SDS011;32500;50.620;3.400;2022-08-20T13:56:39;64.43;;;51.78;;
46753;SDS011;32500;50.620;3.400;2022-08-20T13:59:05;65.00;;;51.70;;
46753;SDS011;32500;50.620;3.400;2022-08-20T14:01:30;65.82;;;52.10;;
46753;SDS011;32500;50.620;3.400;2022-08-20T14:03:56;63.15;;;51.50;;
46753;SDS011;32500;50.620;3.400;2022-08-20T14:06:22;64.20;;;51.55;;
46753;SDS011;32500;50.620;3.400;2022-08-20T14:08:47;63.00;;;51.25;;
46753;SDS011;32500;50.620;3.400;2022-08-20T14:11:13;63.17;;;51.47;;
46753;SDS011;32500;50.620;3.400;2022-08-20T14:13:39;64.78;;;51.53;;
46753;SDS011;32500;50.620;3.400;2022-08-20T14:16:05;63.05;;;51.45;;
46753;SDS011;32500;50.620;3.400;2022-08-20T14:18:30;64.30;;;51.47;;
46753;SDS011;32500;50.620;3.400;2022-08-20T14:20:56;63.25;;;51.50;;
46753;SDS011;32500;50.620;3.400;2022-08-20T14:23:22;64.60;;;51.58;;
46753;SDS011;32500;50.620;3.400;2022-08-20T14:25:47;63.50;;;51.38;;
46753;SDS011;32500;50.620;3.400;2022-08-20T14:28:16;64.03;;;51.55;;
46753;SDS011;32500;50.620;3.400;2022-08-20T14:30:46;63.30;;;51.45;;
46753;SDS011;32500;50.620;3.400;2022-08-20T14:33:13;64.65;;;51.42;;
46753;SDS011;32500;50.620;3.400;2022-08-20T14:35:39;63.42;;;51.30;;
46753;SDS011;32500;50.620;3.400;2022-08-20T14:38:06;65.45;;;51.53;;
46753;SDS011;32500;50.620;3.400;2022-08-20T14:40:32;64.93;;;51.85;;
46753;SDS011;32500;50.620;3.400;2022-08-20T14:42:58;64.97;;;51.75;;